Time;durP1;ratioP1;P1;durP2;ratioP2;P2;SDS_P1;SDS_P2;PMS_P1;PMS_P2;Temp;Humidity;BMP_temperature;BMP_pressure;BME280_temperature;BME280_humidity;BME280_pressure;Samples;Min_cycle;Max_cycle;Signal;HPM_P1;HPM_P2
2022/09/13 00:02:43;;;;;;;;;3.50;2.00;;;;;24.74;34.80;100522.69;146623;699;46010;-74
2022/09/13 00:05:46;;;;;;;;;3.00;3.00;;;;;24.71;34.38;100525.37;146618;622;46014;-76
2022/09/13 00:08:42;;;;;;;;;1.75;1.75;;;;;24.69;35.93;100521.84;146620;572;46010;-76
2022/09/13 00:11:34;;;;;;;;;5.25;3.00;;;;;24.66;35.89;100525.37;146615;616;46016;-72
2022/09/13 00:14:27;;;;;;;;;2.67;2.67;;;;;24.64;35.50;100532.50;146617;601;46021;-71
2022/09/13 00:17:25;;;;;;;;;3.00;3.00;;;;;24.63;36.07;100529.84;146614;633;46016;-70
2022/09/13 00:20:21;;;;;;;;;4.50;3.25;;;;;24.63;36.29;100536.03;146616;576;46020;-71
2022/09/13 00:23:21;;;;;;;;;3.50;3.00;;;;;24.66;36.72;100537.78;146612;566;46916;-72
2022/09/13 00:26:21;;;;;;;;;3.33;2.00;;;;;24.67;36.71;100531.56;146619;631;46020;-72
2022/09/13 00:29:23;;;;;;;;;3.50;2.00;;;;;24.66;35.33;100524.50;146610;573;46014;-72
2022/09/13 00:32:24;;;;;;;;;4.00;4.00;;;;;24.62;37.09;100526.31;146618;681;46020;-70
2022/09/13 00:35:22;;;;;;;;;3.00;3.00;;;;;24.60;36.60;100527.22;146613;639;46017;-71
2022/09/13 00:38:27;;;;;;;;;3.67;3.00;;;;;24.62;36.30;100525.44;146615;643;46014;-69
2022/09/13 00:41:26;;;;;;;;;2.00;2.00;;;;;24.63;36.33;100519.25;146611;568;46016;-72
2022/09/13 00:44:54;;;;;;;;;2.67;2.67;;;;;24.63;36.37;100524.53;146619;589;46010;-73
2022/09/13 00:48:07;;;;;;;;;2.25;2.25;;;;;24.65;35.36;100528.06;146611;648;46012;-72
2022/09/13 00:51:03;;;;;;;;;2.00;2.00;;;;;24.67;35.18;100520.97;146619;621;46020;-72
2022/09/13 00:54:02;;;;;;;;;2.00;2.00;;;;;24.64;34.00;100515.69;146612;565;46014;-73
2022/09/13 00:57:02;;;;;;;;;3.67;2.67;;;;;24.63;35.36;100529.84;146618;618;46020;-76
2022/09/13 01:00:25;;;;;;;;;3.75;3.75;;;;;24.63;35.84;100535.16;146611;570;47014;-75
2022/09/13 01:03:26;;;;;;;;;3.00;2.00;;;;;24.60;33.75;100527.22;146619;643;46020;-73
2022/09/13 01:06:23;;;;;;;;;2.00;2.00;;;;;24.56;33.50;100533.47;146613;620;46016;-69
2022/09/13 01:09:17;;;;;;;;;4.00;2.00;;;;;24.53;34.12;100525.53;146617;709;46020;-71
2022/09/13 01:13:13;;;;;;;;;2.00;1.67;;;;;24.49;35.37;100524.69;146614;635;46016;-69
2022/09/13 01:16:26;;;;;;;;;;;;;;;;;;;;;
2022/09/13 01:19:35;;;;;;;;;3.00;3.00;;;;;24.51;34.88;100522.00;146614;630;46017;-70
2022/09/13 01:23:06;;;;;;;;;3.00;3.00;;;;;24.53;35.65;100521.09;146617;575;47010;-72
2022/09/13 01:26:39;;;;;;;;;2.00;2.00;;;;;23.70;35.67;100384.03;146611;620;46016;-70
2022/09/13 01:30:12;;;;;;;;;3.50;3.50;;;;;24.53;35.17;100512.28;146617;570;46010;-71
2022/09/13 01:33:59;;;;;;;;;2.50;2.50;;;;;24.52;34.97;100510.53;146615;647;46012;-71
2022/09/13 01:37:52;;;;;;;;;2.50;2.00;;;;;24.47;35.13;100507.91;146616;604;46021;-68
2022/09/13 01:41:37;;;;;;;;;2.75;2.75;;;;;24.51;35.85;100509.62;146611;665;46012;-70
2022/09/13 01:44:58;;;;;;;;;3.00;3.00;;;;;24.48;35.26;100507.00;146619;581;46026;-69
2022/09/13 01:48:06;;;;;;;;;2.00;1.67;;;;;24.46;35.27;100498.22;146613;592;46012;-71
2022/09/13 01:51:08;;;;;;;;;2.33;2.33;;;;;24.46;34.94;100502.63;146620;583;46010;-73
2022/09/13 01:54:24;;;;;;;;;3.67;3.00;;;;;24.48;36.20;100503.47;146613;590;46016;-72
2022/09/13 01:57:42;;;;;;;;;5.00;4.00;;;;;24.48;35.44;100492.88;146617;628;46020;-71
2022/09/13 02:00:44;;;;;;;;;2.00;2.00;;;;;24.46;35.54;100492.91;146612;618;46016;-70
2022/09/13 02:03:58;;;;;;;;;3.00;3.00;;;;;24.50;35.90;100499.94;146619;621;46020;-70
2022/09/13 02:07:16;;;;;;;;;3.00;3.00;;;;;24.50;35.58;100494.63;146612;573;46914;-73
2022/09/13 02:10:39;;;;;;;;;3.33;2.33;;;;;24.48;35.29;100496.41;146618;578;46010;-74
2022/09/13 02:13:54;;;;;;;;;;;;;;;;;;;;;
2022/09/13 02:17:00;;;;;;;;;3.00;2.00;;;;;24.45;34.54;100500.84;146620;570;46010;-67
2022/09/13 02:20:21;;;;;;;;;3.00;3.00;;;;;24.37;35.48;100503.56;146618;583;46017;-70
2022/09/13 02:23:50;;;;;;;;;2.75;2.75;;;;;24.01;36.37;100443.81;146619;576;46020;-68
2022/09/13 02:27:19;;;;;;;;;3.00;3.00;;;;;24.42;36.03;100509.72;146614;671;46012;-69
2022/09/13 02:30:21;;;;;;;;;4.00;4.00;;;;;24.51;36.05;100509.62;146609;578;46020;-68
2022/09/13 02:33:45;;;;;;;;;5.00;3.00;;;;;24.53;34.95;100517.59;146613;569;47012;-69
2022/09/13 02:36:56;;;;;;;;;;;;;;;;;;;;;
2022/09/13 02:39:55;;;;;;;;;4.00;3.00;;;;;24.41;36.02;100508.84;146619;569;46016;-71
2022/09/13 02:43:06;;;;;;;;;3.00;3.00;;;;;24.39;34.66;100510.59;146625;628;46010;-70
2022/09/13 02:46:43;;;;;;;;;2.33;2.33;;;;;24.34;34.34;100511.53;146618;590;46029;-69
2022/09/13 02:50:00;;;;;;;;;2.33;2.00;;;;;24.29;34.84;100506.25;146622;565;46011;-68
2022/09/13 02:53:34;;;;;;;;;2.00;2.00;;;;;24.27;36.55;100513.38;146612;638;46031;-69
2022/09/13 02:57:21;;;;;;;;;3.33;3.33;;;;;24.32;36.22;100510.66;146619;569;46021;-68
2022/09/13 03:00:18;;;;;;;;;2.00;2.00;;;;;24.36;35.59;100512.38;146615;647;46012;-71
2022/09/13 03:03:24;;;;;;;;;4.00;4.00;;;;;24.35;35.08;100503.56;146614;654;46020;-69
2022/09/13 03:06:30;;;;;;;;;3.00;3.00;;;;;24.36;36.46;100512.38;146610;577;47915;-69
2022/09/13 03:09:25;;;;;;;;;3.75;3.75;;;;;24.36;36.08;100513.28;146618;669;46010;-70
2022/09/13 03:13:03;;;;;;;;;3.67;3.67;;;;;24.37;36.38;100504.44;146613;586;46914;-71
2022/09/13 03:16:28;;;;;;;;;2.00;2.00;;;;;24.43;35.98;100512.38;146617;618;46020;-71
2022/09/13 03:20:02;;;;;;;;;4.00;3.00;;;;;24.38;36.47;100507.97;146613;659;46013;-71
2022/09/13 03:23:38;;;;;;;;;3.50;3.50;;;;;24.36;37.47;100510.63;146610;710;47010;-71
2022/09/13 03:27:13;;;;;;;;;4.00;4.00;;;;;24.41;37.55;100516.78;146611;572;46013;-70
2022/09/13 03:30:16;;;;;;;;;2.67;2.33;;;;;24.47;37.40;100510.56;146615;583;46020;-69
2022/09/13 03:33:37;;;;;;;;;5.67;4.00;;;;;24.50;37.32;100520.25;146613;571;46013;-70
2022/09/13 03:37:19;;;;;;;;;4.67;4.00;;;;;24.38;37.54;100510.59;146605;569;46022;-69
2022/09/13 03:40:33;;;;;;;;;4.00;3.00;;;;;24.24;37.83;100512.47;146612;573;46013;-68
2022/09/13 03:44:23;;;;;;;;;5.25;4.75;;;;;23.97;38.29;100514.47;146617;571;46010;-69
2022/09/13 03:47:39;;;;;;;;;3.00;3.00;;;;;23.82;38.56;100523.38;146611;651;46015;-69
2022/09/13 03:50:36;;;;;;;;;3.00;3.00;;;;;23.71;38.37;100515.53;146615;580;47010;-69
2022/09/13 03:53:42;;;;;;;;;4.00;4.00;;;;;23.67;38.93;100516.38;146611;622;46016;-74
2022/09/13 03:56:37;;;;;;;;;3.33;3.00;;;;;23.62;39.38;100507.59;146616;609;46011;-72
2022/09/13 03:59:27;;;;;;;;;5.00;5.00;;;;;23.56;39.20;100510.28;146711;564;46012;-72
2022/09/13 04:02:27;;;;;;;;;3.50;3.00;;;;;23.51;39.79;100512.94;146626;602;46012;-71
2022/09/13 04:05:34;;;;;;;;;3.25;3.25;;;;;23.47;39.88;100505.91;146628;589;47021;-71
2022/09/13 04:08:26;;;;;;;;;4.33;4.00;;;;;23.45;39.96;100512.09;146627;569;46016;-73
2022/09/13 04:11:38;;;;;;;;;3.00;3.00;;;;;23.46;39.50;100517.38;146633;635;45021;-72
2022/09/13 04:14:33;;;;;;;;;7.00;5.00;;;;;23.53;39.84;100510.28;146624;628;46016;-73
2022/09/13 04:17:34;;;;;;;;;3.25;3.25;;;;;23.61;40.10;100510.22;146629;599;46021;-68
2022/09/13 04:20:35;;;;;;;;;5.00;5.00;;;;;23.63;39.74;100512.00;146626;737;46016;-70
2022/09/13 04:23:38;;;;;;;;;4.50;4.50;;;;;23.68;39.55;100515.50;146628;650;46020;-69
2022/09/13 04:26:33;;;;;;;;;4.00;4.00;;;;;23.73;40.04;100512.84;146625;574;46017;-69
2022/09/13 04:29:30;;;;;;;;;4.50;4.50;;;;;23.84;40.35;100521.63;146631;599;46010;-69
2022/09/13 04:32:41;;;;;;;;;6.00;5.50;;;;;23.88;39.51;100523.34;146627;574;46012;-71
2022/09/13 04:35:45;;;;;;;;;3.25;3.00;;;;;23.84;39.57;100528.69;146630;724;46021;-71
2022/09/13 04:38:47;;;;;;;;;7.25;5.25;;;;;23.76;40.46;100510.19;146628;579;46012;-71
2022/09/13 04:41:57;;;;;;;;;;;;;;;;;;;;;
2022/09/13 04:44:53;;;;;;;;;5.00;3.67;;;;;23.77;40.80;100522.56;146626;570;46016;-72
2022/09/13 04:48:16;;;;;;;;;4.25;3.25;;;;;23.97;40.72;100522.41;146629;596;46020;-72
2022/09/13 04:51:22;;;;;;;;;5.00;4.00;;;;;24.75;40.02;100537.69;146624;573;46014;-70
2022/09/13 04:54:16;;;;;;;;;8.00;6.00;;;;;25.68;38.75;100529.53;146631;573;46020;-70
2022/09/13 04:57:14;;;;;;;;;7.50;5.50;;;;;26.57;37.86;100541.50;146624;698;46017;-69
2022/09/13 05:00:19;;;;;;;;;6.25;5.00;;;;;27.43;36.20;100532.75;146624;678;46010;-68
2022/09/13 05:03:23;;;;;;;;;9.75;6.50;;;;;28.06;34.62;100540.25;146618;565;46016;-71
2022/09/13 05:06:29;;;;;;;;;4.67;4.00;;;;;28.39;34.16;100548.34;146624;565;46020;-67
2022/09/13 05:09:28;;;;;;;;;3.25;3.00;;;;;28.38;33.63;100549.25;146616;610;46016;-70
2022/09/13 05:12:30;;;;;;;;;4.67;4.33;;;;;28.23;33.83;100537.19;146624;616;46010;-68
2022/09/13 05:15:35;;;;;;;;;5.00;5.00;;;;;28.00;33.85;100540.38;146615;658;46016;-68
2022/09/13 05:18:44;;;;;;;;;3.00;2.00;;;;;27.77;34.49;100545.34;146620;602;46010;-67
2022/09/13 05:21:36;;;;;;;;;6.33;3.33;;;;;27.50;34.95;100541.50;146622;668;46012;-68
2022/09/13 05:24:36;;;;;;;;;3.00;3.00;;;;;27.25;35.25;100550.00;146621;571;46021;-68
2022/09/13 05:27:34;;;;;;;;;4.50;4.50;;;;;27.03;35.78;100552.16;146616;578;46016;-68
2022/09/13 05:30:29;;;;;;;;;6.25;3.75;;;;;26.88;36.00;100555.97;146620;693;46020;-67
2022/09/13 05:33:26;;;;;;;;;4.75;4.50;;;;;26.80;36.58;100555.28;146620;634;46017;-71
2022/09/13 05:36:28;;;;;;;;;4.25;4.25;;;;;26.86;37.05;100563.13;146623;636;46010;-70
2022/09/13 05:39:30;;;;;;;;;6.75;5.00;;;;;26.97;36.52;100565.59;146618;660;46015;-70
2022/09/13 05:42:29;;;;;;;;;5.00;5.00;;;;;27.06;36.30;100565.41;146619;575;46021;-73
2022/09/13 05:45:22;;;;;;;;;1.00;1.00;;;;;27.16;36.55;100574.12;146620;596;46028;-71
2022/09/13 05:48:15;;;;;;;;;5.50;5.00;;;;;27.24;36.03;100579.31;146621;573;46021;-70
2022/09/13 05:51:24;;;;;;;;;3.75;3.75;;;;;27.21;36.10;100576.72;146617;648;46016;-69
2022/09/13 05:54:22;;;;;;;;;5.00;3.00;;;;;27.25;35.98;100575.72;146624;616;46021;-71
2022/09/13 05:57:23;;;;;;;;;4.75;4.75;;;;;27.30;35.96;100568.53;146616;606;46016;-70
2022/09/13 06:00:32;;;;;;;;;3.33;3.33;;;;;27.36;35.36;100574.62;146639;670;47914;-70
2022/09/13 06:03:38;;;;;;;;;;;;;;;;;;;;;
2022/09/13 06:06:34;;;;;;;;;5.67;4.67;;;;;27.53;35.10;100568.06;146645;570;46010;-69
2022/09/13 06:09:57;;;;;;;;;5.00;4.50;;;;;27.57;34.11;100567.06;146641;697;46012;-70
2022/09/13 06:12:40;;;;;;;;;5.00;5.00;;;;;27.62;33.87;100574.06;146711;559;46012;-69
2022/09/13 06:15:32;;;;;;;;;4.67;3.00;;;;;27.74;34.97;100586.25;146627;584;46016;-69
2022/09/13 06:18:38;;;;;;;;;6.00;4.00;;;;;27.81;35.20;100581.69;146632;578;46021;-69
2022/09/13 06:21:30;;;;;;;;;4.67;4.67;;;;;28.02;34.88;100599.00;146621;630;47012;-67
2022/09/13 06:24:33;;;;;;;;;4.33;3.00;;;;;28.22;33.70;100603.84;146629;591;46020;-69
2022/09/13 06:27:37;;;;;;;;;4.00;4.00;;;;;28.45;34.38;100606.91;146626;575;46013;-70
2022/09/13 06:30:34;;;;;;;;;3.67;3.67;;;;;28.65;34.50;100603.72;146630;589;46020;-72
2022/09/13 06:33:34;;;;;;;;;6.25;3.75;;;;;28.78;32.63;100617.63;146623;572;46037;-72
2022/09/13 06:36:33;;;;;;;;;4.67;4.67;;;;;28.87;32.39;100617.38;146631;634;46010;-69
2022/09/13 06:39:34;;;;;;;;;3.00;3.00;;;;;28.95;33.17;100626.09;146627;578;46012;-70
2022/09/13 06:42:32;;;;;;;;;2.75;2.50;;;;;29.07;32.85;100627.59;146628;660;46021;-70
2022/09/13 06:45:24;;;;;;;;;5.25;4.00;;;;;29.19;32.57;100624.59;146626;609;46016;-69
2022/09/13 06:48:18;;;;;;;;;5.25;4.00;;;;;29.32;32.32;100633.13;146630;571;46012;-73
2022/09/13 06:51:13;;;;;;;;;4.00;4.00;;;;;29.36;31.54;100629.44;146627;577;46012;-72
2022/09/13 06:54:12;;;;;;;;;4.33;4.33;;;;;29.39;32.51;100632.03;146629;661;46020;-71
2022/09/13 06:57:10;;;;;;;;;3.00;2.00;;;;;29.42;30.43;100629.28;146623;639;46016;-72
2022/09/13 07:00:15;;;;;;;;;;;;;;;;;;;;;
2022/09/13 07:03:08;;;;;;;;;3.33;3.00;;;;;29.57;31.24;100651.16;146623;616;46017;-72
2022/09/13 07:05:55;;;;;;;;;4.67;4.00;;;;;29.71;31.41;100651.66;146702;576;46023;-71
2022/09/13 07:08:51;;;;;;;;;4.00;2.67;;;;;29.79;30.39;100654.97;146614;579;46016;-74
2022/09/13 07:11:46;;;;;;;;;2.00;2.00;;;;;29.75;30.95;100661.34;146618;577;46020;-70
2022/09/13 07:14:41;;;;;;;;;3.67;3.67;;;;;29.67;30.63;100656.22;146612;625;47012;-69
2022/09/13 07:17:46;;;;;;;;;3.00;3.00;;;;;29.53;30.47;100666.38;146618;593;46020;-70
2022/09/13 07:20:38;;;;;;;;;2.33;1.00;;;;;29.32;31.35;100667.84;146614;653;46016;-72
2022/09/13 07:23:37;;;;;;;;;3.33;3.33;;;;;29.13;31.40;100663.91;146618;576;46020;-71
2022/09/13 07:26:32;;;;;;;;;4.67;4.00;;;;;28.95;31.91;100670.59;146611;581;47012;-72
2022/09/13 07:29:30;;;;;;;;;3.33;3.00;;;;;28.70;32.39;100668.53;146617;565;46021;-72
2022/09/13 07:32:25;;;;;;;;;3.00;3.00;;;;;28.35;31.40;100669.34;146612;563;46016;-71
2022/09/13 07:35:26;;;;;;;;;5.33;4.67;;;;;27.97;32.22;100664.84;146616;616;46021;-71
2022/09/13 07:38:23;;;;;;;;;4.33;3.33;;;;;27.64;33.16;100662.81;146609;624;47016;-74
2022/09/13 07:41:23;;;;;;;;;5.00;5.00;;;;;27.46;33.88;100668.50;146617;589;46020;-73
2022/09/13 07:44:18;;;;;;;;;2.00;2.00;;;;;27.37;33.58;100658.91;146612;599;46013;-72
2022/09/13 07:47:17;;;;;;;;;4.00;4.00;;;;;27.30;33.76;100664.37;146615;565;46020;-70
2022/09/13 07:50:19;;;;;;;;;4.00;4.00;;;;;27.22;32.70;100667.16;146611;604;47013;-72
2022/09/13 07:53:19;;;;;;;;;3.00;3.00;;;;;27.15;33.15;100669.06;146617;683;47010;-71
2022/09/13 07:56:15;;;;;;;;;3.33;3.33;;;;;27.14;33.84;100667.31;146612;672;46031;-72
2022/09/13 07:59:26;;;;;;;;;4.00;4.00;;;;;27.15;34.64;100649.56;146618;609;46020;-71
2022/09/13 08:02:42;;;;;;;;;;;;;;;;;;;;;
2022/09/13 08:05:42;;;;;;;;;5.75;5.75;;;;;27.36;34.24;100658.94;146617;599;46020;-71
2022/09/13 08:08:44;;;;;;;;;4.25;3.75;;;;;27.61;34.13;100662.00;146611;618;46917;-70
2022/09/13 08:11:51;;;;;;;;;4.00;4.00;;;;;27.81;33.89;100659.81;146616;590;47010;-72
2022/09/13 08:14:55;;;;;;;;;1.67;1.67;;;;;27.98;33.55;100661.28;146613;564;46016;-70
2022/09/13 08:17:48;;;;;;;;;4.67;4.67;;;;;28.02;33.64;100665.62;146615;609;46020;-71
2022/09/13 08:20:44;;;;;;;;;6.00;6.00;;;;;28.04;32.34;100666.47;146610;586;46017;-71
2022/09/13 08:23:36;;;;;;;;;6.50;5.50;;;;;27.18;31.41;100535.94;146615;571;47010;-72
2022/09/13 08:26:28;;;;;;;;;6.25;5.00;;;;;28.01;32.18;100664.75;146606;641;46016;-70
2022/09/13 08:29:24;;;;;;;;;5.00;5.00;;;;;28.11;31.45;100665.44;146615;582;46021;-72
2022/09/13 08:32:27;;;;;;;;;6.25;5.25;;;;;28.36;32.38;100662.22;146612;679;46917;-70
2022/09/13 08:35:21;;;;;;;;;5.75;5.50;;;;;28.69;31.18;100663.22;146615;720;46026;-73
2022/09/13 08:38:16;;;;;;;;;6.75;5.00;;;;;28.98;32.20;100660.69;146612;590;46016;-72
2022/09/13 08:41:51;;;;;;;;;5.00;5.00;;;;;29.30;32.27;100664.34;146615;617;46013;-71
2022/09/13 08:45:04;;;;;;;;;6.00;6.00;;;;;29.68;32.04;100663.28;146610;666;46016;-71
2022/09/13 08:48:05;;;;;;;;;7.25;5.25;;;;;30.01;31.90;100665.91;146616;643;46010;-70
2022/09/13 08:51:11;;;;;;;;;3.75;3.75;;;;;30.28;31.48;100656.22;146609;684;46017;-72
2022/09/13 08:54:07;;;;;;;;;4.67;3.67;;;;;30.55;31.19;100656.22;146616;597;46010;-74
2022/09/13 08:57:43;;;;;;;;;6.00;4.67;;;;;30.76;30.49;100650.19;146612;649;46012;-71
2022/09/13 09:00:46;;;;;;;;;4.33;4.33;;;;;30.81;29.56;100648.25;146616;622;46020;-70
2022/09/13 09:04:34;;;;;;;;;5.00;4.25;;;;;30.63;31.05;100654.19;146611;572;46016;-71
2022/09/13 09:07:51;;;;;;;;;6.00;4.50;;;;;29.56;30.91;100428.50;146617;660;46020;-73
2022/09/13 09:11:07;;;;;;;;;3.00;3.00;;;;;30.16;30.76;100501.44;146612;587;46016;-69
2022/09/13 09:14:39;;;;;;;;;5.00;5.00;;;;;31.08;30.26;100656.25;146614;578;47020;-70
2022/09/13 09:18:11;;;;;;;;;5.50;4.75;;;;;31.16;31.11;100656.88;146611;685;46014;-70
2022/09/13 09:21:20;;;;;;;;;3.50;3.50;;;;;30.35;30.21;100502.59;146616;649;46010;-70
2022/09/13 09:24:31;;;;;;;;;2.25;2.25;;;;;31.27;30.07;100649.31;146609;569;46016;-71
2022/09/13 09:27:38;;;;;;;;;4.00;3.25;;;;;31.39;30.42;100644.50;146616;686;46011;-71
2022/09/13 09:30:51;;;;;;;;;4.75;3.75;;;;;31.55;30.48;100647.47;146608;690;47012;-71
2022/09/13 09:34:41;;;;;;;;;;;;;;;;;;;;;
2022/09/13 09:37:44;;;;;;;;;3.33;3.33;;;;;31.98;27.40;100649.44;146609;610;47012;-71
2022/09/13 09:40:52;;;;;;;;;;;;;;;;;;;;;
2022/09/13 09:44:03;;;;;;;;;4.00;3.33;;;;;32.09;29.71;100646.34;146613;632;46916;-70
2022/09/13 09:47:31;;;;;;;;;3.75;3.00;;;;;32.10;28.77;100646.28;146616;577;46020;-71
2022/09/13 09:50:40;;;;;;;;;3.00;3.00;;;;;32.08;29.48;100645.47;146611;582;46918;-71
2022/09/13 09:53:42;;;;;;;;;4.50;4.50;;;;;32.10;28.85;100653.47;146616;674;46029;-73
2022/09/13 09:56:54;;;;;;;;;2.50;2.50;;;;;32.06;27.85;100646.47;146611;587;46016;-73
2022/09/13 09:59:47;;;;;;;;;3.00;3.00;;;;;32.05;27.52;100645.59;146617;667;46020;-73
2022/09/13 10:03:22;;;;;;;;;2.00;1.67;;;;;30.62;29.00;100390.16;146610;593;46016;-70
2022/09/13 10:06:43;;;;;;;;;2.25;2.25;;;;;32.20;28.36;100639.63;146620;578;47913;-71
2022/09/13 10:09:46;;;;;;;;;;;;;;;;;;;;;
2022/09/13 10:12:47;;;;;;;;;3.33;3.33;;;;;32.33;28.43;100655.22;146619;603;46034;-69
2022/09/13 10:16:15;;;;;;;;;2.33;1.67;;;;;31.65;29.16;100534.53;146619;580;46024;-70
2022/09/13 10:19:31;;;;;;;;;3.00;3.00;;;;;32.18;29.40;100641.50;146619;643;46031;-71
2022/09/13 10:22:24;;;;;;;;;5.00;4.00;;;;;32.25;27.55;100639.44;146618;609;46012;-73
2022/09/13 10:25:30;;;;;;;;;1.67;1.67;;;;;32.34;26.86;100639.06;146619;598;46020;-70
2022/09/13 10:28:27;;;;;;;;;1.00;1.00;;;;;32.25;27.37;100639.44;146614;579;48012;-71
2022/09/13 10:31:33;;;;;;;;;2.00;2.00;;;;;32.18;27.98;100643.28;146623;588;46010;-72
2022/09/13 10:34:32;;;;;;;;;3.00;3.00;;;;;32.22;27.85;100638.69;146612;602;47012;-70
2022/09/13 10:37:46;;;;;;;;;3.00;2.00;;;;;32.33;27.12;100644.50;146620;585;46020;-71
2022/09/13 10:40:54;;;;;;;;;2.00;2.00;;;;;31.09;27.42;100394.69;146613;566;46026;-71
2022/09/13 10:43:59;;;;;;;;;7.00;4.50;;;;;32.58;27.15;100629.16;146621;648;46010;-70
2022/09/13 10:46:53;;;;;;;;;1.00;1.00;;;;;32.64;26.84;100641.47;146619;569;47027;-73
2022/09/13 10:49:59;;;;;;;;;4.00;4.00;;;;;32.73;27.24;100629.47;146619;602;46021;-71
2022/09/13 10:53:03;;;;;;;;;3.67;2.67;;;;;32.81;25.66;100624.66;146617;671;46016;-70
2022/09/13 10:56:22;;;;;;;;;2.00;2.00;;;;;32.80;27.20;100628.25;146621;622;46021;-72
2022/09/13 10:59:43;;;;;;;;;2.00;2.00;;;;;31.42;27.23;100371.94;146616;640;46016;-71
2022/09/13 11:03:04;;;;;;;;;2.67;2.67;;;;;33.00;27.32;100627.44;146624;604;46010;-71
2022/09/13 11:06:35;;;;;;;;;2.75;2.75;;;;;33.04;27.50;100629.94;146611;649;46012;-71
2022/09/13 11:10:16;;;;;;;;;2.00;2.00;;;;;32.82;27.33;100624.56;146615;606;46020;-70
2022/09/13 11:13:37;;;;;;;;;2.33;2.33;;;;;31.80;28.25;100474.03;146611;592;46012;-71
2022/09/13 11:16:59;;;;;;;;;3.00;2.67;;;;;32.55;24.39;100613.19;146614;646;47010;-69
2022/09/13 11:20:36;;;;;;;;;1.67;1.67;;;;;32.50;27.48;100611.66;146609;654;48012;-72
2022/09/13 11:24:13;;;;;;;;;2.67;2.67;;;;;31.67;27.53;100464.75;146615;578;46020;-71
2022/09/13 11:27:41;;;;;;;;;3.33;3.00;;;;;32.49;27.64;100602.69;146611;663;47012;-70
2022/09/13 11:31:01;;;;;;;;;1.33;1.33;;;;;32.43;27.65;100608.28;146617;613;46020;-71
2022/09/13 11:34:27;;;;;;;;;3.33;3.00;;;;;32.32;27.55;100606.06;146614;566;47016;-71
2022/09/13 11:38:05;;;;;;;;;2.33;2.33;;;;;32.34;27.15;100598.84;146616;579;46020;-71
2022/09/13 11:41:36;;;;;;;;;2.75;2.75;;;;;32.40;28.61;100593.22;146611;566;46017;-72
2022/09/13 11:45:00;;;;;;;;;1.67;1.67;;;;;32.33;27.76;100596.19;146618;586;46030;-71
2022/09/13 11:48:26;;;;;;;;;2.67;2.67;;;;;32.27;27.45;100586.59;146608;633;48914;-71
2022/09/13 11:51:52;;;;;;;;;3.00;3.00;;;;;32.24;28.07;100583.16;146617;563;46020;-71
2022/09/13 11:55:29;;;;;;;;;3.33;1.33;;;;;32.17;26.96;100578.03;146611;595;46016;-69
2022/09/13 11:58:50;;;;;;;;;3.33;3.00;;;;;32.08;28.03;100575.72;146616;592;46022;-70
2022/09/13 12:02:09;;;;;;;;;2.33;2.33;;;;;32.06;26.39;100574.94;146614;587;46016;-71
2022/09/13 12:05:35;;;;;;;;;;;;;;;;;;;;;
2022/09/13 12:09:07;;;;;;;;;2.00;2.00;;;;;32.08;27.12;100570.38;146613;665;46016;-71
2022/09/13 12:12:34;;;;;;;;;2.00;2.00;;;;;32.08;27.36;100565.00;146619;586;46010;-72
2022/09/13 12:15:50;;;;;;;;;1.33;1.33;;;;;32.12;27.83;100561.28;146614;655;46913;-70
2022/09/13 12:19:14;;;;;;;;;3.67;2.33;;;;;32.12;27.83;100566.66;146618;687;47010;-73
2022/09/13 12:22:12;;;;;;;;;3.00;2.00;;;;;32.15;25.59;100562.94;146614;570;46012;-72
2022/09/13 12:25:37;;;;;;;;;;;;;;;;;;;;;
2022/09/13 12:28:51;;;;;;;;;3.25;3.25;;;;;32.02;27.06;100550.97;146606;569;48913;-71
2022/09/13 12:31:51;;;;;;;;;1.33;1.33;;;;;32.04;25.75;100541.06;146619;566;46021;-71
2022/09/13 12:35:08;;;;;;;;;3.33;3.00;;;;;32.01;27.09;100542.06;146612;578;46012;-70
2022/09/13 12:38:56;;;;;;;;;3.00;3.00;;;;;30.97;27.89;100383.53;146604;626;47012;-71
2022/09/13 12:42:25;;;;;;;;;3.33;3.33;;;;;31.92;27.62;100539.75;146612;563;46014;-71
2022/09/13 12:46:18;;;;;;;;;3.00;3.00;;;;;31.97;27.96;100535.06;146618;614;46020;-71
2022/09/13 12:49:56;;;;;;;;;3.67;1.33;;;;;31.20;26.32;100381.75;146608;569;47012;-71
2022/09/13 12:53:28;;;;;;;;;3.00;3.00;;;;;30.45;28.86;100254.37;146617;588;46020;-71
2022/09/13 12:56:57;;;;;;;;;3.00;3.00;;;;;32.09;26.76;100529.22;146611;585;46034;-70
2022/09/13 13:00:25;;;;;;;;;4.00;3.00;;;;;32.05;25.31;100526.69;146617;610;46020;-72
2022/09/13 13:03:24;;;;;;;;;2.00;2.00;;;;;32.04;27.21;100533.88;146611;657;46017;-70
2022/09/13 13:07:05;;;;;;;;;5.00;4.33;;;;;31.18;27.13;100373.78;146609;689;47010;-72
2022/09/13 13:10:47;;;;;;;;;6.00;6.00;;;;;31.49;27.33;100426.16;146611;603;46916;-71
2022/09/13 13:14:17;;;;;;;;;5.00;5.00;;;;;31.18;28.11;100381.81;146603;578;46020;-72
2022/09/13 13:18:03;;;;;;;;;3.33;3.33;;;;;32.04;28.08;100525.84;146612;648;46916;-70
2022/09/13 13:21:47;;;;;;;;;3.67;3.67;;;;;31.19;27.89;100378.22;146617;573;46020;-70
2022/09/13 13:24:59;;;;;;;;;3.00;3.00;;;;;31.85;27.57;100523.00;146613;586;46016;-71
2022/09/13 13:27:54;;;;;;;;;3.00;3.00;;;;;31.61;26.48;100516.78;146615;710;47010;-72
2022/09/13 13:30:59;;;;;;;;;3.33;3.33;;;;;31.45;26.77;100515.66;146611;659;46035;-72
2022/09/13 13:34:40;;;;;;;;;4.50;3.75;;;;;31.38;28.67;100514.16;146613;565;46020;-71
2022/09/13 13:37:42;;;;;;;;;4.00;4.00;;;;;31.40;25.30;100523.88;146607;569;46016;-70
2022/09/13 13:40:55;;;;;;;;;;;;;;;;;;;;;
2022/09/13 13:43:50;;;;;;;;;3.00;3.00;;;;;31.23;27.26;100516.44;146612;586;46016;-71
2022/09/13 13:46:48;;;;;;;;;3.33;3.33;;;;;31.24;27.83;100528.00;146604;625;46012;-71
2022/09/13 13:50:20;;;;;;;;;3.00;3.00;;;;;30.36;28.24;100373.28;146611;597;47012;-71
2022/09/13 13:53:40;;;;;;;;;3.33;3.33;;;;;30.44;28.47;100373.00;146616;607;46010;-71
2022/09/13 13:56:58;;;;;;;;;4.33;4.00;;;;;31.34;29.42;100523.22;146612;588;47014;-71
2022/09/13 14:00:15;;;;;;;;;3.00;3.00;;;;;30.93;28.15;100526.47;146616;588;46020;-71
2022/09/13 14:03:57;;;;;;;;;2.00;2.00;;;;;30.46;28.43;100525.44;146614;565;46016;-72
2022/09/13 14:07:19;;;;;;;;;2.67;2.67;;;;;30.12;30.60;100524.72;146617;582;46020;-71
2022/09/13 14:11:19;;;;;;;;;4.75;4.75;;;;;29.24;30.90;100397.47;146609;566;46014;-73
2022/09/13 14:14:56;;;;;;;;;3.00;3.00;;;;;29.68;30.79;100481.59;146615;595;46010;-71
2022/09/13 14:18:32;;;;;;;;;3.00;3.00;;;;;29.14;30.49;100414.72;146610;586;47012;-72
2022/09/13 14:21:31;;;;;;;;;3.33;3.33;;;;;29.67;30.57;100529.75;146604;580;46010;-70
2022/09/13 14:24:28;;;;;;;;;4.00;4.00;;;;;29.58;30.46;100530.88;146602;613;47918;-70
2022/09/13 14:27:50;;;;;;;;;4.00;4.00;;;;;28.64;31.47;100372.56;146613;571;47010;-69
2022/09/13 14:30:42;;;;;;;;;4.00;4.00;;;;;29.51;31.45;100520.44;146609;642;46033;-69
2022/09/13 14:33:40;;;;;;;;;3.33;3.33;;;;;29.29;31.25;100542.41;146616;582;46020;-71
2022/09/13 14:36:38;;;;;;;;;5.00;3.00;;;;;29.06;31.80;100528.84;146611;646;46039;-71
2022/09/13 14:39:39;;;;;;;;;3.33;3.33;;;;;28.91;31.82;100530.09;146617;564;46010;-70
2022/09/13 14:42:51;;;;;;;;;2.00;2.00;;;;;28.88;32.33;100541.75;146608;609;47012;-71
2022/09/13 14:46:20;;;;;;;;;4.00;3.25;;;;;28.89;32.20;100543.50;146617;702;46021;-71
2022/09/13 14:49:48;;;;;;;;;5.00;4.50;;;;;28.90;31.87;100550.59;146610;673;46016;-73
2022/09/13 14:53:33;;;;;;;;;;;;;;;;;;;;;
2022/09/13 14:56:40;;;;;;;;;3.00;3.00;;;;;28.84;31.60;100547.22;146613;569;46016;-70
2022/09/13 14:59:54;;;;;;;;;;;;;;;;;;;;;
2022/09/13 15:02:58;;;;;;;;;3.67;3.00;;;;;28.69;31.90;100546.72;146611;636;46035;-71
2022/09/13 15:06:08;;;;;;;;;2.50;2.50;;;;;28.67;31.73;100548.53;146618;565;46010;-70
2022/09/13 15:09:32;;;;;;;;;3.00;3.00;;;;;27.05;31.83;100280.72;146612;565;46012;-70
2022/09/13 15:12:39;;;;;;;;;1.33;1.00;;;;;27.69;31.83;100396.31;146615;592;46012;-71
2022/09/13 15:16:30;;;;;;;;;2.50;2.50;;;;;27.66;31.75;100392.87;146611;618;47012;-71
2022/09/13 15:20:00;;;;;;;;;;;;;;;;;;;;;